createdAt,value
2022-12-16T00:00:17.902Z,20.80
2022-12-16T00:02:47.759Z,17.55
2022-12-16T00:05:16.334Z,16.65
2022-12-16T00:07:44.638Z,18.38
2022-12-16T00:10:13.287Z,20.67
2022-12-16T00:12:41.688Z,19.40
2022-12-16T00:15:10.665Z,16.70
2022-12-16T00:17:39.644Z,17.90
2022-12-16T00:20:10.642Z,18.77
2022-12-16T00:22:38.967Z,19.67
2022-12-16T00:25:08.246Z,22.67
2022-12-16T00:27:36.772Z,17.65
2022-12-16T00:30:05.930Z,15.98
2022-12-16T00:32:34.338Z,18.23
2022-12-16T00:35:02.640Z,19.13
2022-12-16T00:37:32.703Z,17.30
2022-12-16T00:40:01.002Z,17.08
2022-12-16T00:42:29.346Z,20.85
2022-12-16T00:44:57.686Z,15.00
2022-12-16T00:47:25.971Z,20.80
2022-12-16T00:49:55.175Z,14.35
2022-12-16T00:52:23.981Z,17.83
2022-12-16T00:54:53.708Z,16.20
2022-12-16T00:57:23.627Z,20.25
2022-12-16T00:59:51.944Z,16.38
2022-12-16T01:02:20.543Z,20.60
2022-12-16T01:04:49.022Z,20.70
2022-12-16T01:07:17.400Z,19.30
2022-12-16T01:09:45.728Z,15.65
2022-12-16T01:12:15.620Z,18.08
2022-12-16T01:14:44.096Z,15.80
2022-12-16T01:17:12.611Z,20.52
2022-12-16T01:19:40.901Z,18.90
2022-12-16T01:22:09.558Z,17.75
2022-12-16T01:24:37.948Z,17.63
2022-12-16T01:27:06.251Z,18.05
2022-12-16T01:29:35.981Z,18.27
2022-12-16T01:32:06.325Z,17.27
2022-12-16T01:34:34.690Z,19.40
2022-12-16T01:37:03.014Z,19.75
2022-12-16T01:39:31.505Z,18.33
2022-12-16T01:41:59.847Z,18.70
2022-12-16T01:44:28.440Z,15.25
2022-12-16T01:47:04.231Z,15.30
2022-12-16T01:49:38.777Z,17.38
2022-12-16T01:54:40.791Z,19.77
2022-12-16T01:57:13.189Z,19.52
2022-12-16T01:59:45.637Z,16.95
2022-12-16T02:02:15.752Z,20.02
2022-12-16T02:05:05.131Z,17.70
2022-12-16T02:07:33.511Z,22.05
2022-12-16T02:10:01.816Z,19.02
2022-12-16T02:12:36.447Z,17.25
2022-12-16T02:15:19.904Z,17.77
2022-12-16T02:17:58.862Z,18.38
2022-12-16T02:20:59.754Z,18.50
2022-12-16T02:23:53.015Z,18.48
2022-12-16T02:26:55.579Z,19.95
2022-12-16T02:29:51.611Z,16.20
2022-12-16T02:32:26.733Z,17.63
2022-12-16T02:37:38.905Z,18.05
2022-12-16T02:40:16.960Z,21.05
2022-12-16T02:42:50.035Z,18.80
2022-12-16T02:45:26.606Z,17.80
2022-12-16T02:47:56.572Z,17.27
2022-12-16T02:50:29.533Z,17.05
2022-12-16T02:52:58.998Z,18.10
2022-12-16T02:55:45.899Z,21.73
2022-12-16T02:58:21.028Z,18.38
2022-12-16T03:00:57.603Z,17.13
2022-12-16T03:03:33.604Z,16.05
2022-12-16T03:06:03.461Z,20.42
2022-12-16T03:08:35.342Z,16.25
2022-12-16T03:11:06.693Z,22.27
2022-12-16T03:13:40.578Z,23.35
2022-12-16T03:16:12.132Z,11.13
2022-12-16T03:18:45.176Z,20.48
2022-12-16T03:21:15.614Z,15.95
2022-12-16T03:23:48.772Z,17.55
2022-12-16T03:26:22.917Z,18.83
2022-12-16T03:28:57.245Z,20.48
2022-12-16T03:31:36.064Z,20.13
2022-12-16T03:34:13.367Z,20.50
2022-12-16T03:36:45.227Z,15.30
2022-12-16T03:39:14.803Z,19.15
2022-12-16T03:41:45.426Z,16.27
2022-12-16T03:44:14.096Z,19.05
2022-12-16T03:46:42.530Z,20.50
2022-12-16T03:49:12.262Z,13.38
2022-12-16T03:51:40.870Z,17.90
2022-12-16T03:54:09.155Z,17.60
2022-12-16T03:56:37.473Z,16.77
2022-12-16T03:59:05.801Z,15.18
2022-12-16T04:01:34.336Z,18.15
2022-12-16T04:04:02.920Z,13.95
2022-12-16T04:06:32.861Z,17.50
2022-12-16T04:09:01.204Z,16.58
2022-12-16T04:11:47.027Z,14.82
2022-12-16T04:14:32.694Z,16.70
2022-12-16T04:17:18.820Z,13.77
2022-12-16T04:20:05.467Z,18.50
2022-12-16T04:22:55.412Z,18.77
2022-12-16T04:25:27.057Z,17.58
2022-12-16T04:27:55.345Z,15.50
2022-12-16T04:30:23.818Z,20.20
2022-12-16T04:33:13.224Z,15.38
2022-12-16T04:35:58.989Z,14.30
2022-12-16T04:38:45.933Z,18.15
2022-12-16T04:41:32.276Z,16.27
2022-12-16T04:44:18.273Z,16.52
2022-12-16T04:47:04.396Z,15.75
2022-12-16T04:49:50.598Z,13.18
2022-12-16T04:52:37.145Z,15.68
2022-12-16T04:55:25.898Z,14.35
2022-12-16T04:58:13.649Z,11.10
2022-12-16T05:01:00.515Z,20.23
2022-12-16T05:03:46.681Z,15.30
2022-12-16T05:06:33.020Z,12.40
2022-12-16T05:09:18.990Z,15.95
2022-12-16T05:12:05.815Z,14.30
2022-12-16T05:14:51.669Z,13.20
2022-12-16T05:17:37.890Z,12.73
2022-12-16T05:20:25.136Z,14.00
2022-12-16T05:23:13.783Z,15.50
2022-12-16T05:25:59.558Z,11.93
2022-12-16T05:28:47.052Z,14.90
2022-12-16T05:31:32.778Z,11.18
2022-12-16T05:34:21.174Z,10.98
2022-12-16T05:37:06.255Z,11.82
2022-12-16T05:39:52.285Z,12.63
2022-12-16T05:42:37.983Z,13.88
2022-12-16T05:45:25.825Z,12.35
2022-12-16T05:48:11.434Z,13.05
2022-12-16T05:50:57.040Z,15.60
2022-12-16T05:53:43.040Z,12.77
2022-12-16T05:56:28.728Z,11.68
2022-12-16T05:59:14.631Z,12.57
2022-12-16T06:02:01.830Z,12.18
2022-12-16T06:04:47.963Z,11.15
2022-12-16T06:07:33.579Z,11.60
2022-12-16T06:10:19.604Z,17.80
2022-12-16T06:13:05.920Z,14.32
2022-12-16T06:15:51.536Z,14.00
2022-12-16T06:18:38.865Z,14.63
2022-12-16T06:21:24.505Z,15.45
2022-12-16T06:24:10.410Z,11.10
2022-12-16T06:26:56.408Z,11.10
2022-12-16T06:29:42.067Z,13.63
2022-12-16T06:32:27.724Z,14.95
2022-12-16T06:35:15.092Z,12.48
2022-12-16T06:38:00.733Z,13.10
2022-12-16T06:40:51.735Z,12.43
2022-12-16T06:43:41.121Z,10.65
2022-12-16T06:46:26.896Z,13.60
2022-12-16T06:49:12.906Z,15.55
2022-12-16T06:51:56.499Z,9.57
2022-12-16T06:54:42.306Z,10.82
2022-12-16T06:57:27.969Z,10.15
2022-12-16T07:00:13.707Z,10.05
2022-12-16T07:02:59.351Z,11.98
2022-12-16T07:05:45.324Z,10.32
2022-12-16T07:08:32.314Z,12.45
2022-12-16T07:11:18.072Z,13.60
2022-12-16T07:14:04.038Z,13.32
2022-12-16T07:16:49.691Z,14.10
2022-12-16T07:19:35.572Z,11.75
2022-12-16T07:22:21.236Z,11.07
2022-12-16T07:25:08.252Z,16.20
2022-12-16T07:27:53.946Z,13.25
2022-12-16T07:30:39.552Z,11.35
2022-12-16T07:33:25.239Z,12.90
2022-12-16T07:36:10.994Z,11.75
2022-12-16T07:39:04.919Z,11.35
2022-12-16T07:41:52.109Z,15.00
2022-12-16T07:44:38.635Z,14.02
2022-12-16T07:47:24.698Z,9.18
2022-12-16T07:50:10.226Z,11.85
2022-12-16T07:52:55.867Z,13.18
2022-12-16T07:55:41.652Z,13.85
2022-12-16T07:58:28.842Z,10.77
2022-12-16T08:01:11.135Z,13.40
2022-12-16T08:03:53.471Z,13.57
2022-12-16T08:06:44.907Z,15.85
2022-12-16T08:09:30.958Z,12.43
2022-12-16T08:12:21.938Z,15.38
2022-12-16T08:15:09.211Z,13.65
2022-12-16T08:17:55.245Z,13.23
2022-12-16T08:20:41.172Z,14.60
2022-12-16T08:23:26.752Z,12.68
2022-12-16T08:26:12.621Z,18.90
2022-12-16T08:29:05.454Z,16.98
2022-12-16T08:32:09.481Z,9.63
2022-12-16T08:34:55.377Z,10.32
2022-12-16T08:37:41.150Z,12.60
2022-12-16T08:40:35.380Z,10.45
2022-12-16T08:43:18.327Z,14.52
2022-12-16T08:46:04.303Z,13.57
2022-12-16T08:48:51.596Z,11.68
2022-12-16T08:51:40.435Z,10.90
2022-12-16T08:54:26.081Z,9.13
2022-12-16T08:57:12.245Z,8.52
2022-12-16T08:59:58.330Z,7.22
2022-12-16T09:02:44.551Z,8.43
2022-12-16T09:05:32.472Z,9.13
2022-12-16T09:08:18.823Z,7.80
2022-12-16T09:11:04.987Z,10.32
2022-12-16T09:13:51.491Z,8.00
2022-12-16T09:16:37.910Z,9.13
2022-12-16T09:19:23.751Z,9.55
2022-12-16T09:22:11.390Z,10.35
2022-12-16T09:24:57.589Z,10.73
2022-12-16T09:27:43.966Z,9.73
2022-12-16T09:30:30.617Z,13.43
2022-12-16T09:33:15.516Z,12.00
2022-12-16T09:36:01.388Z,10.95
2022-12-16T09:38:48.931Z,10.43
2022-12-16T09:41:53.375Z,10.65
2022-12-16T09:44:53.564Z,10.52
2022-12-16T09:47:49.983Z,14.52
2022-12-16T09:50:40.543Z,15.70
2022-12-16T09:53:31.432Z,13.75
2022-12-16T09:56:21.523Z,21.02
2022-12-16T09:59:20.399Z,15.65
2022-12-16T10:02:07.146Z,17.63
2022-12-16T10:04:53.903Z,16.55
2022-12-16T10:07:43.329Z,13.88
2022-12-16T10:10:41.045Z,26.77
2022-12-16T10:13:39.749Z,16.40
2022-12-16T10:16:34.345Z,12.68
2022-12-16T10:19:30.733Z,12.13
2022-12-16T10:22:29.089Z,13.73
2022-12-16T10:25:24.842Z,11.75
2022-12-16T10:28:19.396Z,12.27
2022-12-16T10:31:06.963Z,16.38
2022-12-16T10:33:53.955Z,14.65
2022-12-16T10:36:44.818Z,13.95
2022-12-16T10:39:42.501Z,17.85
2022-12-16T10:42:39.166Z,20.02
2022-12-16T10:45:36.509Z,27.42
2022-12-16T10:48:24.648Z,21.75
2022-12-16T10:51:10.713Z,20.40
2022-12-16T10:54:00.399Z,32.03
2022-12-16T10:57:05.940Z,26.58
2022-12-16T10:59:58.017Z,26.27
2022-12-16T11:02:46.001Z,29.98
2022-12-16T11:05:52.013Z,29.63
2022-12-16T11:11:33.703Z,30.50
2022-12-16T11:14:33.810Z,32.97
2022-12-16T11:17:36.644Z,30.23
2022-12-16T11:20:37.829Z,31.58
2022-12-16T11:23:35.666Z,29.05
2022-12-16T11:26:24.672Z,33.90
2022-12-16T11:29:28.158Z,40.38
2022-12-16T11:32:32.177Z,32.08
2022-12-16T11:35:28.835Z,37.15
2022-12-16T11:38:16.559Z,32.40
2022-12-16T11:41:04.785Z,32.03
2022-12-16T11:43:52.793Z,30.83
2022-12-16T11:46:47.069Z,32.65
2022-12-16T11:49:43.328Z,27.95
2022-12-16T11:52:37.205Z,30.08
2022-12-16T11:56:04.177Z,29.67
2022-12-16T11:58:52.247Z,27.60
2022-12-16T12:01:45.720Z,26.38
2022-12-16T12:04:33.260Z,34.85
2022-12-16T12:07:46.236Z,28.65
2022-12-16T12:10:49.394Z,27.45
2022-12-16T12:14:04.678Z,28.95
2022-12-16T12:17:02.141Z,28.23
2022-12-16T12:20:00.411Z,37.30
2022-12-16T12:22:54.142Z,42.28
2022-12-16T12:25:45.747Z,44.28
2022-12-16T12:28:43.637Z,39.28
2022-12-16T12:31:44.086Z,44.28
2022-12-16T12:34:39.721Z,36.90
2022-12-16T12:37:34.229Z,34.05
2022-12-16T12:40:36.273Z,34.05
2022-12-16T12:43:31.477Z,38.13
2022-12-16T12:46:25.915Z,31.35
2022-12-16T12:49:24.139Z,24.67
2022-12-16T12:52:19.305Z,29.60
2022-12-16T12:55:17.204Z,25.73
2022-12-16T12:58:07.895Z,30.23
2022-12-16T13:01:01.119Z,28.63
2022-12-16T13:03:53.108Z,28.33
2022-12-16T13:06:42.368Z,40.55
2022-12-16T13:09:44.404Z,48.45
2022-12-16T13:12:46.111Z,51.95
2022-12-16T13:16:07.439Z,52.00
2022-12-16T13:18:54.178Z,53.58
2022-12-16T13:22:05.059Z,52.88
2022-12-16T13:25:00.908Z,45.97
2022-12-16T13:28:03.287Z,54.63
2022-12-16T13:30:51.978Z,58.10
2022-12-16T13:33:49.468Z,49.10
2022-12-16T13:36:37.709Z,51.25
2022-12-16T13:39:43.346Z,47.70
2022-12-16T13:43:06.082Z,49.70
2022-12-16T13:45:54.943Z,36.35
2022-12-16T13:48:56.530Z,33.88
2022-12-16T13:52:24.941Z,42.88
2022-12-16T13:55:30.516Z,34.13
2022-12-16T13:58:23.488Z,34.17
2022-12-16T14:01:24.016Z,27.05
2022-12-16T14:04:12.036Z,29.63
2022-12-16T14:07:05.436Z,29.33
2022-12-16T14:09:54.327Z,33.05
2022-12-16T14:13:03.399Z,33.78
2022-12-16T14:16:00.573Z,44.45
2022-12-16T14:18:59.720Z,39.50
2022-12-16T14:21:52.670Z,37.13
2022-12-16T14:24:49.529Z,41.35
2022-12-16T14:27:38.165Z,50.83
2022-12-16T14:30:37.188Z,42.80
2022-12-16T14:33:40.120Z,37.55
2022-12-16T14:36:39.649Z,41.42
2022-12-16T14:39:30.292Z,43.25
2022-12-16T14:42:16.848Z,34.53
2022-12-16T14:45:05.019Z,31.92
2022-12-16T14:47:58.881Z,25.45
2022-12-16T14:50:49.162Z,24.70
2022-12-16T14:53:37.824Z,25.30
2022-12-16T14:56:35.992Z,24.73
2022-12-16T14:59:31.615Z,22.30
2022-12-16T15:05:04.293Z,24.20
2022-12-16T15:07:56.218Z,35.72
2022-12-16T15:10:46.750Z,28.13
2022-12-16T15:13:36.736Z,32.30
2022-12-16T15:16:25.110Z,31.35
2022-12-16T15:19:18.759Z,25.17
2022-12-16T15:22:06.966Z,24.13
2022-12-16T15:24:57.985Z,25.58
2022-12-16T15:27:45.434Z,31.38
2022-12-16T15:30:51.707Z,25.05
2022-12-16T15:33:39.812Z,38.33
2022-12-16T15:36:42.530Z,39.88
2022-12-16T15:39:38.273Z,41.10
2022-12-16T15:42:37.304Z,30.58
2022-12-16T15:45:34.589Z,46.88
2022-12-16T15:48:32.200Z,31.80
2022-12-16T15:51:19.598Z,56.45
2022-12-16T15:54:20.639Z,47.55
2022-12-16T15:57:08.158Z,40.17
2022-12-16T15:59:54.091Z,34.53
2022-12-16T16:02:44.164Z,40.35
2022-12-16T16:05:33.423Z,46.90
2022-12-16T16:08:19.829Z,37.72
2022-12-16T16:11:06.479Z,41.45
2022-12-16T16:13:55.871Z,32.42
2022-12-16T16:16:44.688Z,42.47
2022-12-16T16:19:35.331Z,44.45
2022-12-16T16:22:21.732Z,40.15
2022-12-16T16:25:08.288Z,36.50
2022-12-16T16:27:55.030Z,29.25
2022-12-16T16:30:42.578Z,43.55
2022-12-16T16:33:29.402Z,30.73
2022-12-16T16:36:16.097Z,31.88
2022-12-16T16:39:02.196Z,27.38
2022-12-16T16:41:48.180Z,26.40
2022-12-16T16:44:34.811Z,28.63
2022-12-16T16:47:22.311Z,26.45
2022-12-16T16:50:08.829Z,28.83
2022-12-16T16:52:55.305Z,24.55
2022-12-16T16:55:43.125Z,28.23
2022-12-16T16:58:33.007Z,34.33
2022-12-16T17:01:18.972Z,29.23
2022-12-16T17:04:06.408Z,42.85
2022-12-16T17:06:52.573Z,35.05
2022-12-16T17:09:38.978Z,33.83
2022-12-16T17:12:36.403Z,24.30
2022-12-16T17:15:35.945Z,22.33
2022-12-16T17:18:22.854Z,34.10
2022-12-16T17:21:11.004Z,25.95
2022-12-16T17:23:58.004Z,33.40
2022-12-16T17:26:44.333Z,25.08
2022-12-16T17:29:37.199Z,25.20
2022-12-16T17:32:23.359Z,19.55
2022-12-16T17:35:09.828Z,31.63
2022-12-16T17:37:57.510Z,23.73
2022-12-16T17:40:43.882Z,28.83
2022-12-16T17:43:30.409Z,27.48
2022-12-16T17:46:19.078Z,30.10
2022-12-16T17:49:09.912Z,25.92
2022-12-16T17:51:55.710Z,24.63
2022-12-16T17:54:43.522Z,25.67
2022-12-16T17:57:29.888Z,40.60
2022-12-16T18:00:24.006Z,24.02
2022-12-16T18:03:10.621Z,29.17
2022-12-16T18:05:57.085Z,42.33
2022-12-16T18:08:43.558Z,24.73
2022-12-16T18:11:34.658Z,30.73
2022-12-16T18:14:24.930Z,24.60
2022-12-16T18:17:11.373Z,38.78
2022-12-16T18:19:57.980Z,24.45
2022-12-16T18:22:43.999Z,24.05
2022-12-16T18:25:30.386Z,23.88
2022-12-16T18:28:17.814Z,30.05
2022-12-16T18:31:04.289Z,33.25
2022-12-16T18:33:50.098Z,35.55
2022-12-16T18:36:36.360Z,28.63
2022-12-16T18:39:22.518Z,28.25
2022-12-16T18:42:08.575Z,27.70
2022-12-16T18:45:01.276Z,20.13
2022-12-16T18:47:48.892Z,30.13
2022-12-16T18:50:37.955Z,32.03
2022-12-16T18:53:25.338Z,27.85
2022-12-16T18:56:23.011Z,25.50
2022-12-16T18:59:10.786Z,27.50
2022-12-16T19:01:59.039Z,21.65
2022-12-16T19:04:45.709Z,30.92
2022-12-16T19:07:33.946Z,18.73
2022-12-16T19:10:20.249Z,24.63
2022-12-16T19:13:06.532Z,29.00
2022-12-16T19:15:53.034Z,24.58
2022-12-16T19:18:40.954Z,20.65
2022-12-16T19:21:28.428Z,30.55
2022-12-16T19:24:14.454Z,22.13
2022-12-16T19:27:00.316Z,18.27
2022-12-16T19:29:46.029Z,22.52
2022-12-16T19:32:32.028Z,24.70
2022-12-16T19:35:19.821Z,27.38
2022-12-16T19:38:05.592Z,23.20
2022-12-16T19:40:51.448Z,17.25
2022-12-16T19:43:39.437Z,27.98
2022-12-16T19:46:27.282Z,23.42
2022-12-16T19:49:14.125Z,26.08
2022-12-16T19:52:01.529Z,22.70
2022-12-16T19:54:47.419Z,22.45
2022-12-16T19:57:33.211Z,18.55
2022-12-16T20:00:19.663Z,23.10
2022-12-16T20:03:05.733Z,19.92
2022-12-16T20:05:52.384Z,23.33
2022-12-16T20:08:40.987Z,18.63
2022-12-16T20:11:28.677Z,17.23
2022-12-16T20:14:16.069Z,23.73
2022-12-16T20:17:17.207Z,27.58
2022-12-16T20:20:06.658Z,19.83
2022-12-16T20:22:53.080Z,22.02
2022-12-16T20:25:44.118Z,29.50
2022-12-16T20:28:30.812Z,24.63
2022-12-16T20:31:28.482Z,28.00
2022-12-16T20:34:15.496Z,18.67
2022-12-16T20:37:01.808Z,33.53
2022-12-16T20:39:56.359Z,25.52
2022-12-16T20:45:35.860Z,31.92
2022-12-16T20:48:22.608Z,30.58
2022-12-16T20:51:13.157Z,22.65
2022-12-16T20:53:59.635Z,24.92
2022-12-16T20:56:46.172Z,20.88
2022-12-16T20:59:39.155Z,24.80
2022-12-16T21:02:30.350Z,22.17
2022-12-16T21:05:19.416Z,24.25
2022-12-16T21:08:05.403Z,27.40
2022-12-16T21:10:51.788Z,23.80
2022-12-16T21:13:38.036Z,21.67
2022-12-16T21:16:26.227Z,26.42
2022-12-16T21:19:12.656Z,26.48
2022-12-16T21:22:01.461Z,21.48
2022-12-16T21:24:47.847Z,28.13
2022-12-16T21:27:33.913Z,25.05
2022-12-16T21:30:20.026Z,25.38
2022-12-16T21:33:08.818Z,20.45
2022-12-16T21:35:56.492Z,18.85
2022-12-16T21:38:42.480Z,22.80
2022-12-16T21:41:29.593Z,23.83
2022-12-16T21:44:16.100Z,15.95
2022-12-16T21:47:02.241Z,34.22
2022-12-16T21:49:49.789Z,24.92
2022-12-16T21:52:36.263Z,23.73
2022-12-16T21:55:22.701Z,23.45
2022-12-16T21:58:08.943Z,25.35
2022-12-16T22:00:58.791Z,25.02
2022-12-16T22:03:52.663Z,20.00
2022-12-16T22:06:37.740Z,26.38
2022-12-16T22:09:24.154Z,18.20
2022-12-16T22:12:09.996Z,34.40
2022-12-16T22:14:56.275Z,31.45
2022-12-16T22:17:42.390Z,37.83
2022-12-16T22:20:28.889Z,22.48
2022-12-16T22:23:17.065Z,23.20
2022-12-16T22:26:03.217Z,23.80
2022-12-16T22:28:49.434Z,41.35
2022-12-16T22:31:35.839Z,36.90
2022-12-16T22:34:27.099Z,29.85
2022-12-16T22:37:13.282Z,25.95
2022-12-16T22:40:01.109Z,33.80
2022-12-16T22:42:47.449Z,29.30
2022-12-16T22:45:33.360Z,31.08
2022-12-16T22:48:19.460Z,33.38
2022-12-16T22:51:05.814Z,32.83
2022-12-16T22:53:51.775Z,28.65
2022-12-16T22:56:39.515Z,27.35
2022-12-16T22:59:25.428Z,31.73
2022-12-16T23:02:13.658Z,29.88
2022-12-16T23:05:00.012Z,27.33
2022-12-16T23:07:46.101Z,23.48
2022-12-16T23:10:32.348Z,28.00
2022-12-16T23:13:19.594Z,31.63
2022-12-16T23:16:06.062Z,23.20
2022-12-16T23:18:52.386Z,22.33
2022-12-16T23:21:38.783Z,30.60
2022-12-16T23:24:26.787Z,23.27
2022-12-16T23:27:17.129Z,24.60
2022-12-16T23:30:04.381Z,18.27
2022-12-16T23:32:50.131Z,23.25
2022-12-16T23:35:36.517Z,18.92
2022-12-16T23:38:24.237Z,21.42
2022-12-16T23:41:14.145Z,20.17
2022-12-16T23:43:59.904Z,21.45
2022-12-16T23:46:47.744Z,25.98
2022-12-16T23:49:33.655Z,21.38
2022-12-16T23:52:19.213Z,27.42
2022-12-16T23:55:05.513Z,34.67
2022-12-16T23:57:51.372Z,22.90
